sensor_id;sensor_type;location;lat;lon;timestamp;P1;durP1;ratioP1;P2;durP2;ratioP2
58071;SDS011;60383;46.626;18.866;2022-11-15T00:01:34;32.45;;;19.10;;
58071;SDS011;60383;46.626;18.866;2022-11-15T00:04:02;34.53;;;20.08;;
58071;SDS011;60383;46.626;18.866;2022-11-15T00:06:28;36.78;;;19.88;;
58071;SDS011;60383;46.626;18.866;2022-11-15T00:08:54;34.85;;;18.75;;
58071;SDS011;60383;46.626;18.866;2022-11-15T00:11:19;35.83;;;20.08;;
58071;SDS011;60383;46.626;18.866;2022-11-15T00:13:45;33.60;;;19.08;;
58071;SDS011;60383;46.626;18.866;2022-11-15T00:16:11;34.75;;;18.52;;
58071;SDS011;60383;46.626;18.866;2022-11-15T00:18:37;38.10;;;19.80;;
58071;SDS011;60383;46.626;18.866;2022-11-15T00:21:04;33.38;;;20.10;;
58071;SDS011;60383;46.626;18.866;2022-11-15T00:23:31;35.53;;;19.60;;
58071;SDS011;60383;46.626;18.866;2022-11-15T00:25:57;38.13;;;20.13;;
58071;SDS011;60383;46.626;18.866;2022-11-15T00:28:24;47.42;;;20.58;;
58071;SDS011;60383;46.626;18.866;2022-11-15T00:30:49;38.03;;;20.98;;
58071;SDS011;60383;46.626;18.866;2022-11-15T00:33:15;38.85;;;21.85;;
58071;SDS011;60383;46.626;18.866;2022-11-15T00:35:40;37.28;;;20.80;;
58071;SDS011;60383;46.626;18.866;2022-11-15T00:38:06;38.45;;;21.30;;
58071;SDS011;60383;46.626;18.866;2022-11-15T00:40:31;36.92;;;20.20;;
58071;SDS011;60383;46.626;18.866;2022-11-15T00:42:57;35.63;;;20.90;;
58071;SDS011;60383;46.626;18.866;2022-11-15T00:45:23;37.90;;;20.45;;
58071;SDS011;60383;46.626;18.866;2022-11-15T00:47:49;37.15;;;20.35;;
58071;SDS011;60383;46.626;18.866;2022-11-15T00:50:15;31.70;;;19.10;;
58071;SDS011;60383;46.626;18.866;2022-11-15T00:52:41;31.20;;;19.00;;
58071;SDS011;60383;46.626;18.866;2022-11-15T00:55:08;32.42;;;19.05;;
58071;SDS011;60383;46.626;18.866;2022-11-15T00:57:39;31.95;;;19.17;;
58071;SDS011;60383;46.626;18.866;2022-11-15T01:00:05;33.63;;;18.48;;
58071;SDS011;60383;46.626;18.866;2022-11-15T01:02:33;34.70;;;19.05;;
58071;SDS011;60383;46.626;18.866;2022-11-15T01:04:59;33.53;;;18.63;;
58071;SDS011;60383;46.626;18.866;2022-11-15T01:07:24;35.50;;;20.67;;
58071;SDS011;60383;46.626;18.866;2022-11-15T01:09:50;34.00;;;18.90;;
58071;SDS011;60383;46.626;18.866;2022-11-15T01:12:15;34.40;;;19.75;;
58071;SDS011;60383;46.626;18.866;2022-11-15T01:14:40;33.47;;;18.88;;
58071;SDS011;60383;46.626;18.866;2022-11-15T01:17:07;33.60;;;19.60;;
58071;SDS011;60383;46.626;18.866;2022-11-15T01:19:32;35.78;;;19.92;;
58071;SDS011;60383;46.626;18.866;2022-11-15T01:21:58;32.95;;;19.00;;
58071;SDS011;60383;46.626;18.866;2022-11-15T01:24:23;37.08;;;19.85;;
58071;SDS011;60383;46.626;18.866;2022-11-15T01:26:49;36.05;;;19.80;;
58071;SDS011;60383;46.626;18.866;2022-11-15T01:29:14;32.50;;;20.23;;
58071;SDS011;60383;46.626;18.866;2022-11-15T01:31:39;36.50;;;21.00;;
58071;SDS011;60383;46.626;18.866;2022-11-15T01:34:05;34.05;;;18.73;;
58071;SDS011;60383;46.626;18.866;2022-11-15T01:36:30;36.80;;;19.30;;
58071;SDS011;60383;46.626;18.866;2022-11-15T01:38:56;37.47;;;20.00;;
58071;SDS011;60383;46.626;18.866;2022-11-15T01:41:24;37.50;;;19.20;;
58071;SDS011;60383;46.626;18.866;2022-11-15T01:43:52;31.15;;;18.45;;
58071;SDS011;60383;46.626;18.866;2022-11-15T01:46:27;32.03;;;19.27;;
58071;SDS011;60383;46.626;18.866;2022-11-15T01:49:00;44.45;;;20.75;;
58071;SDS011;60383;46.626;18.866;2022-11-15T01:51:31;40.40;;;18.90;;
58071;SDS011;60383;46.626;18.866;2022-11-15T01:54:08;33.72;;;19.42;;
58071;SDS011;60383;46.626;18.866;2022-11-15T01:56:40;40.45;;;19.58;;
58071;SDS011;60383;46.626;18.866;2022-11-15T01:59:11;38.70;;;19.67;;
58071;SDS011;60383;46.626;18.866;2022-11-15T02:01:37;38.38;;;18.42;;
58071;SDS011;60383;46.626;18.866;2022-11-15T02:04:08;53.47;;;19.90;;
58071;SDS011;60383;46.626;18.866;2022-11-15T02:06:38;39.75;;;19.52;;
58071;SDS011;60383;46.626;18.866;2022-11-15T02:09:04;38.90;;;18.67;;
58071;SDS011;60383;46.626;18.866;2022-11-15T02:11:30;42.08;;;20.20;;
58071;SDS011;60383;46.626;18.866;2022-11-15T02:13:56;39.20;;;19.33;;
58071;SDS011;60383;46.626;18.866;2022-11-15T02:21:47;39.85;;;17.95;;
58071;SDS011;60383;46.626;18.866;2022-11-15T02:32:20;37.10;;;19.15;;
58071;SDS011;60383;46.626;18.866;2022-11-15T02:40:15;39.03;;;19.20;;
58071;SDS011;60383;46.626;18.866;2022-11-15T02:42:55;41.78;;;18.77;;
58071;SDS011;60383;46.626;18.866;2022-11-15T02:45:48;41.47;;;19.10;;
58071;SDS011;60383;46.626;18.866;2022-11-15T02:48:17;35.80;;;18.92;;
58071;SDS011;60383;46.626;18.866;2022-11-15T02:50:43;34.58;;;20.27;;
58071;SDS011;60383;46.626;18.866;2022-11-15T02:53:09;31.35;;;18.02;;
58071;SDS011;60383;46.626;18.866;2022-11-15T02:55:38;34.22;;;19.20;;
58071;SDS011;60383;46.626;18.866;2022-11-15T03:11:15;34.92;;;19.27;;
58071;SDS011;60383;46.626;18.866;2022-11-15T03:18:55;38.90;;;22.23;;
58071;SDS011;60383;46.626;18.866;2022-11-15T03:21:28;34.38;;;19.52;;
58071;SDS011;60383;46.626;18.866;2022-11-15T03:23:55;46.53;;;18.75;;
58071;SDS011;60383;46.626;18.866;2022-11-15T03:26:26;35.55;;;19.25;;
58071;SDS011;60383;46.626;18.866;2022-11-15T03:28:55;32.95;;;19.58;;
58071;SDS011;60383;46.626;18.866;2022-11-15T03:31:26;53.58;;;33.38;;
58071;SDS011;60383;46.626;18.866;2022-11-15T03:34:21;31.83;;;19.42;;
58071;SDS011;60383;46.626;18.866;2022-11-15T03:36:52;38.63;;;18.55;;
58071;SDS011;60383;46.626;18.866;2022-11-15T03:39:17;38.97;;;18.52;;
58071;SDS011;60383;46.626;18.866;2022-11-15T03:50:01;37.55;;;18.08;;
58071;SDS011;60383;46.626;18.866;2022-11-15T03:52:33;33.30;;;18.90;;
58071;SDS011;60383;46.626;18.866;2022-11-15T03:55:00;37.15;;;19.70;;
58071;SDS011;60383;46.626;18.866;2022-11-15T03:57:28;33.17;;;19.77;;
58071;SDS011;60383;46.626;18.866;2022-11-15T03:59:53;32.58;;;19.60;;
58071;SDS011;60383;46.626;18.866;2022-11-15T04:02:19;32.42;;;18.92;;
58071;SDS011;60383;46.626;18.866;2022-11-15T04:04:44;32.35;;;19.15;;
58071;SDS011;60383;46.626;18.866;2022-11-15T04:07:10;35.58;;;19.40;;
58071;SDS011;60383;46.626;18.866;2022-11-15T04:09:35;31.00;;;19.27;;
58071;SDS011;60383;46.626;18.866;2022-11-15T04:12:20;33.40;;;19.08;;
58071;SDS011;60383;46.626;18.866;2022-11-15T04:14:55;30.73;;;19.30;;
58071;SDS011;60383;46.626;18.866;2022-11-15T04:20:04;32.47;;;19.60;;
58071;SDS011;60383;46.626;18.866;2022-11-15T04:22:51;31.67;;;19.95;;
58071;SDS011;60383;46.626;18.866;2022-11-15T04:25:44;32.72;;;20.13;;
58071;SDS011;60383;46.626;18.866;2022-11-15T04:28:10;30.75;;;19.10;;
58071;SDS011;60383;46.626;18.866;2022-11-15T04:30:36;31.15;;;19.85;;
58071;SDS011;60383;46.626;18.866;2022-11-15T04:33:02;31.58;;;19.83;;
58071;SDS011;60383;46.626;18.866;2022-11-15T04:35:28;31.33;;;19.73;;
58071;SDS011;60383;46.626;18.866;2022-11-15T04:37:54;38.53;;;25.63;;
58071;SDS011;60383;46.626;18.866;2022-11-15T04:40:20;32.78;;;20.42;;
58071;SDS011;60383;46.626;18.866;2022-11-15T04:42:46;27.83;;;18.25;;
58071;SDS011;60383;46.626;18.866;2022-11-15T04:45:11;28.75;;;17.98;;
58071;SDS011;60383;46.626;18.866;2022-11-15T04:47:37;29.17;;;19.10;;
58071;SDS011;60383;46.626;18.866;2022-11-15T04:50:02;28.85;;;18.92;;
58071;SDS011;60383;46.626;18.866;2022-11-15T04:52:28;35.05;;;19.80;;
58071;SDS011;60383;46.626;18.866;2022-11-15T04:54:54;33.45;;;20.88;;
58071;SDS011;60383;46.626;18.866;2022-11-15T04:57:19;29.20;;;19.60;;
58071;SDS011;60383;46.626;18.866;2022-11-15T04:59:44;36.78;;;24.38;;
58071;SDS011;60383;46.626;18.866;2022-11-15T05:02:10;29.55;;;19.85;;
58071;SDS011;60383;46.626;18.866;2022-11-15T05:04:35;28.65;;;19.10;;
58071;SDS011;60383;46.626;18.866;2022-11-15T05:07:01;30.52;;;19.45;;
58071;SDS011;60383;46.626;18.866;2022-11-15T05:09:27;30.50;;;19.58;;
58071;SDS011;60383;46.626;18.866;2022-11-15T05:11:52;29.80;;;20.27;;
58071;SDS011;60383;46.626;18.866;2022-11-15T05:14:18;30.77;;;19.23;;
58071;SDS011;60383;46.626;18.866;2022-11-15T05:16:43;31.90;;;19.48;;
58071;SDS011;60383;46.626;18.866;2022-11-15T05:19:08;29.77;;;19.10;;
58071;SDS011;60383;46.626;18.866;2022-11-15T05:21:34;27.65;;;19.27;;
58071;SDS011;60383;46.626;18.866;2022-11-15T05:24:00;29.70;;;19.63;;
58071;SDS011;60383;46.626;18.866;2022-11-15T05:26:26;30.67;;;20.33;;
58071;SDS011;60383;46.626;18.866;2022-11-15T05:28:52;27.77;;;18.85;;
58071;SDS011;60383;46.626;18.866;2022-11-15T05:31:21;26.95;;;18.42;;
58071;SDS011;60383;46.626;18.866;2022-11-15T05:33:46;29.67;;;18.77;;
58071;SDS011;60383;46.626;18.866;2022-11-15T05:38:51;27.77;;;18.15;;
58071;SDS011;60383;46.626;18.866;2022-11-15T05:41:17;29.73;;;19.23;;
58071;SDS011;60383;46.626;18.866;2022-11-15T05:43:45;28.65;;;19.00;;
58071;SDS011;60383;46.626;18.866;2022-11-15T05:46:13;29.08;;;18.90;;
58071;SDS011;60383;46.626;18.866;2022-11-15T05:48:39;29.20;;;19.15;;
58071;SDS011;60383;46.626;18.866;2022-11-15T05:51:08;29.35;;;19.20;;
58071;SDS011;60383;46.626;18.866;2022-11-15T05:53:33;30.17;;;19.67;;
58071;SDS011;60383;46.626;18.866;2022-11-15T05:56:02;29.38;;;19.15;;
58071;SDS011;60383;46.626;18.866;2022-11-15T05:58:30;29.92;;;19.45;;
58071;SDS011;60383;46.626;18.866;2022-11-15T06:00:57;29.92;;;19.85;;
58071;SDS011;60383;46.626;18.866;2022-11-15T06:03:22;29.80;;;19.50;;
58071;SDS011;60383;46.626;18.866;2022-11-15T06:05:48;28.70;;;19.50;;
58071;SDS011;60383;46.626;18.866;2022-11-15T06:08:13;29.92;;;19.48;;
58071;SDS011;60383;46.626;18.866;2022-11-15T06:10:38;26.23;;;18.20;;
58071;SDS011;60383;46.626;18.866;2022-11-15T06:13:04;28.70;;;18.80;;
58071;SDS011;60383;46.626;18.866;2022-11-15T06:15:31;28.67;;;19.65;;
58071;SDS011;60383;46.626;18.866;2022-11-15T06:17:58;26.60;;;18.73;;
58071;SDS011;60383;46.626;18.866;2022-11-15T06:20:24;30.75;;;18.80;;
58071;SDS011;60383;46.626;18.866;2022-11-15T06:22:50;27.48;;;19.23;;
58071;SDS011;60383;46.626;18.866;2022-11-15T06:25:16;28.48;;;19.58;;
58071;SDS011;60383;46.626;18.866;2022-11-15T06:27:41;28.20;;;18.70;;
58071;SDS011;60383;46.626;18.866;2022-11-15T06:30:06;26.58;;;18.67;;
58071;SDS011;60383;46.626;18.866;2022-11-15T06:32:32;26.40;;;18.17;;
58071;SDS011;60383;46.626;18.866;2022-11-15T06:34:58;26.40;;;18.67;;
58071;SDS011;60383;46.626;18.866;2022-11-15T06:37:23;28.38;;;18.38;;
58071;SDS011;60383;46.626;18.866;2022-11-15T06:39:48;26.88;;;18.90;;
58071;SDS011;60383;46.626;18.866;2022-11-15T06:42:14;29.27;;;19.25;;
58071;SDS011;60383;46.626;18.866;2022-11-15T06:44:39;27.90;;;18.63;;
58071;SDS011;60383;46.626;18.866;2022-11-15T06:47:04;28.90;;;19.10;;
58071;SDS011;60383;46.626;18.866;2022-11-15T06:49:30;28.48;;;19.33;;
58071;SDS011;60383;46.626;18.866;2022-11-15T06:51:55;31.63;;;19.75;;
58071;SDS011;60383;46.626;18.866;2022-11-15T06:54:21;28.92;;;18.77;;
58071;SDS011;60383;46.626;18.866;2022-11-15T06:56:47;29.30;;;18.40;;
58071;SDS011;60383;46.626;18.866;2022-11-15T06:59:12;27.98;;;18.67;;
58071;SDS011;60383;46.626;18.866;2022-11-15T07:01:38;28.55;;;19.42;;
58071;SDS011;60383;46.626;18.866;2022-11-15T07:04:03;27.35;;;17.90;;
58071;SDS011;60383;46.626;18.866;2022-11-15T07:06:28;28.13;;;18.83;;
58071;SDS011;60383;46.626;18.866;2022-11-15T07:08:54;27.85;;;18.02;;
58071;SDS011;60383;46.626;18.866;2022-11-15T07:11:19;29.05;;;18.35;;
58071;SDS011;60383;46.626;18.866;2022-11-15T07:13:45;29.92;;;19.15;;
58071;SDS011;60383;46.626;18.866;2022-11-15T07:16:10;26.13;;;18.35;;
58071;SDS011;60383;46.626;18.866;2022-11-15T07:18:36;27.35;;;18.20;;
58071;SDS011;60383;46.626;18.866;2022-11-15T07:21:03;28.42;;;18.73;;
58071;SDS011;60383;46.626;18.866;2022-11-15T07:23:29;27.45;;;18.63;;
58071;SDS011;60383;46.626;18.866;2022-11-15T07:25:56;30.17;;;19.70;;
58071;SDS011;60383;46.626;18.866;2022-11-15T07:28:23;28.35;;;18.85;;
58071;SDS011;60383;46.626;18.866;2022-11-15T07:30:49;28.75;;;19.27;;
58071;SDS011;60383;46.626;18.866;2022-11-15T07:33:14;30.00;;;19.88;;
58071;SDS011;60383;46.626;18.866;2022-11-15T07:35:40;28.10;;;18.30;;
58071;SDS011;60383;46.626;18.866;2022-11-15T07:38:05;27.58;;;19.27;;
58071;SDS011;60383;46.626;18.866;2022-11-15T07:40:31;30.40;;;20.33;;
58071;SDS011;60383;46.626;18.866;2022-11-15T07:43:03;27.38;;;18.92;;
58071;SDS011;60383;46.626;18.866;2022-11-15T07:45:30;28.92;;;20.20;;
58071;SDS011;60383;46.626;18.866;2022-11-15T07:47:55;31.33;;;19.95;;
58071;SDS011;60383;46.626;18.866;2022-11-15T07:50:22;30.50;;;19.73;;
58071;SDS011;60383;46.626;18.866;2022-11-15T07:52:53;28.00;;;19.80;;
58071;SDS011;60383;46.626;18.866;2022-11-15T07:55:23;29.35;;;19.75;;
58071;SDS011;60383;46.626;18.866;2022-11-15T07:57:49;29.88;;;20.13;;
58071;SDS011;60383;46.626;18.866;2022-11-15T08:00:15;30.05;;;19.52;;
58071;SDS011;60383;46.626;18.866;2022-11-15T08:02:41;32.17;;;21.75;;
58071;SDS011;60383;46.626;18.866;2022-11-15T08:05:07;30.38;;;20.25;;
58071;SDS011;60383;46.626;18.866;2022-11-15T08:07:33;28.80;;;19.95;;
58071;SDS011;60383;46.626;18.866;2022-11-15T08:09:58;34.97;;;21.63;;
58071;SDS011;60383;46.626;18.866;2022-11-15T08:12:26;30.30;;;20.83;;
58071;SDS011;60383;46.626;18.866;2022-11-15T08:14:53;29.63;;;19.27;;
58071;SDS011;60383;46.626;18.866;2022-11-15T08:17:19;34.03;;;21.38;;
58071;SDS011;60383;46.626;18.866;2022-11-15T08:19:44;30.92;;;19.88;;
58071;SDS011;60383;46.626;18.866;2022-11-15T08:22:10;33.00;;;21.45;;
58071;SDS011;60383;46.626;18.866;2022-11-15T08:24:35;33.55;;;21.38;;
58071;SDS011;60383;46.626;18.866;2022-11-15T08:27:01;33.67;;;21.13;;
58071;SDS011;60383;46.626;18.866;2022-11-15T08:29:26;30.92;;;20.05;;
58071;SDS011;60383;46.626;18.866;2022-11-15T08:31:54;32.17;;;20.33;;
58071;SDS011;60383;46.626;18.866;2022-11-15T08:34:20;33.65;;;21.63;;
58071;SDS011;60383;46.626;18.866;2022-11-15T08:36:46;32.95;;;22.00;;
58071;SDS011;60383;46.626;18.866;2022-11-15T08:39:11;32.10;;;20.83;;
58071;SDS011;60383;46.626;18.866;2022-11-15T08:41:37;31.52;;;20.95;;
58071;SDS011;60383;46.626;18.866;2022-11-15T08:44:03;33.08;;;22.10;;
58071;SDS011;60383;46.626;18.866;2022-11-15T08:46:29;34.10;;;21.58;;
58071;SDS011;60383;46.626;18.866;2022-11-15T08:48:54;31.73;;;21.70;;
58071;SDS011;60383;46.626;18.866;2022-11-15T08:51:19;30.52;;;21.40;;
58071;SDS011;60383;46.626;18.866;2022-11-15T08:53:45;32.78;;;21.83;;
58071;SDS011;60383;46.626;18.866;2022-11-15T08:56:11;30.63;;;20.50;;
58071;SDS011;60383;46.626;18.866;2022-11-15T08:58:38;32.65;;;21.85;;
58071;SDS011;60383;46.626;18.866;2022-11-15T09:01:04;31.55;;;21.45;;
58071;SDS011;60383;46.626;18.866;2022-11-15T09:03:30;31.55;;;21.90;;
58071;SDS011;60383;46.626;18.866;2022-11-15T09:05:56;32.88;;;21.58;;
58071;SDS011;60383;46.626;18.866;2022-11-15T09:08:23;30.25;;;20.15;;
58071;SDS011;60383;46.626;18.866;2022-11-15T09:10:50;30.85;;;21.38;;
58071;SDS011;60383;46.626;18.866;2022-11-15T09:13:15;31.13;;;21.52;;
58071;SDS011;60383;46.626;18.866;2022-11-15T09:15:42;31.38;;;21.52;;
58071;SDS011;60383;46.626;18.866;2022-11-15T09:18:07;30.80;;;21.77;;
58071;SDS011;60383;46.626;18.866;2022-11-15T09:20:32;32.15;;;23.02;;
58071;SDS011;60383;46.626;18.866;2022-11-15T09:22:59;31.08;;;21.63;;
58071;SDS011;60383;46.626;18.866;2022-11-15T09:25:25;31.30;;;22.48;;
58071;SDS011;60383;46.626;18.866;2022-11-15T09:27:51;31.38;;;22.30;;
58071;SDS011;60383;46.626;18.866;2022-11-15T09:30:16;30.25;;;21.00;;
58071;SDS011;60383;46.626;18.866;2022-11-15T09:32:42;32.70;;;22.00;;
58071;SDS011;60383;46.626;18.866;2022-11-15T09:35:07;31.40;;;21.67;;
58071;SDS011;60383;46.626;18.866;2022-11-15T09:37:33;32.53;;;22.50;;
58071;SDS011;60383;46.626;18.866;2022-11-15T09:39:58;32.13;;;21.90;;
58071;SDS011;60383;46.626;18.866;2022-11-15T09:45:28;29.95;;;21.35;;
58071;SDS011;60383;46.626;18.866;2022-11-15T09:50:58;32.80;;;21.10;;
58071;SDS011;60383;46.626;18.866;2022-11-15T09:53:29;33.42;;;23.23;;
58071;SDS011;60383;46.626;18.866;2022-11-15T09:56:05;31.80;;;22.17;;
58071;SDS011;60383;46.626;18.866;2022-11-15T10:01:12;30.35;;;21.50;;
58071;SDS011;60383;46.626;18.866;2022-11-15T10:03:44;33.92;;;22.65;;
58071;SDS011;60383;46.626;18.866;2022-11-15T10:06:23;32.05;;;21.63;;
58071;SDS011;60383;46.626;18.866;2022-11-15T10:11:23;33.95;;;22.52;;
58071;SDS011;60383;46.626;18.866;2022-11-15T10:13:51;33.33;;;21.83;;
58071;SDS011;60383;46.626;18.866;2022-11-15T10:22:27;34.08;;;22.75;;
58071;SDS011;60383;46.626;18.866;2022-11-15T10:25:10;33.47;;;23.13;;
58071;SDS011;60383;46.626;18.866;2022-11-15T10:27:41;33.38;;;22.25;;
58071;SDS011;60383;46.626;18.866;2022-11-15T10:30:12;32.72;;;22.67;;
58071;SDS011;60383;46.626;18.866;2022-11-15T10:32:42;33.17;;;23.15;;
58071;SDS011;60383;46.626;18.866;2022-11-15T10:37:48;34.58;;;22.67;;
58071;SDS011;60383;46.626;18.866;2022-11-15T10:40:21;35.83;;;24.50;;
58071;SDS011;60383;46.626;18.866;2022-11-15T10:42:49;33.03;;;23.02;;
58071;SDS011;60383;46.626;18.866;2022-11-15T10:45:31;33.95;;;22.17;;
58071;SDS011;60383;46.626;18.866;2022-11-15T10:50:38;35.08;;;23.15;;
58071;SDS011;60383;46.626;18.866;2022-11-15T10:53:20;33.40;;;23.60;;
58071;SDS011;60383;46.626;18.866;2022-11-15T10:55:53;32.45;;;22.98;;
58071;SDS011;60383;46.626;18.866;2022-11-15T11:00:54;37.17;;;24.40;;
58071;SDS011;60383;46.626;18.866;2022-11-15T11:03:35;34.15;;;22.80;;
58071;SDS011;60383;46.626;18.866;2022-11-15T11:06:06;33.70;;;23.10;;
58071;SDS011;60383;46.626;18.866;2022-11-15T11:08:39;36.28;;;23.52;;
58071;SDS011;60383;46.626;18.866;2022-11-15T11:11:06;34.10;;;23.48;;
58071;SDS011;60383;46.626;18.866;2022-11-15T11:21:14;35.88;;;25.15;;
58071;SDS011;60383;46.626;18.866;2022-11-15T11:29:20;38.20;;;26.33;;
58071;SDS011;60383;46.626;18.866;2022-11-15T11:32:18;39.25;;;26.15;;
58071;SDS011;60383;46.626;18.866;2022-11-15T11:45:19;35.33;;;24.75;;
58071;SDS011;60383;46.626;18.866;2022-11-15T11:48:33;36.65;;;25.27;;
58071;SDS011;60383;46.626;18.866;2022-11-15T11:54:11;39.35;;;26.15;;
58071;SDS011;60383;46.626;18.866;2022-11-15T11:56:43;39.38;;;25.90;;
58071;SDS011;60383;46.626;18.866;2022-11-15T11:59:21;36.25;;;25.85;;
58071;SDS011;60383;46.626;18.866;2022-11-15T12:01:47;38.20;;;26.33;;
58071;SDS011;60383;46.626;18.866;2022-11-15T12:04:29;38.00;;;25.88;;
58071;SDS011;60383;46.626;18.866;2022-11-15T12:09:59;37.42;;;24.55;;
58071;SDS011;60383;46.626;18.866;2022-11-15T12:12:30;37.70;;;25.55;;
58071;SDS011;60383;46.626;18.866;2022-11-15T12:17:41;40.53;;;27.17;;
58071;SDS011;60383;46.626;18.866;2022-11-15T12:20:20;39.08;;;27.73;;
58071;SDS011;60383;46.626;18.866;2022-11-15T12:26:01;42.15;;;28.08;;
58071;SDS011;60383;46.626;18.866;2022-11-15T12:28:54;42.03;;;27.85;;
58071;SDS011;60383;46.626;18.866;2022-11-15T12:34:02;47.05;;;30.70;;
58071;SDS011;60383;46.626;18.866;2022-11-15T12:36:38;41.85;;;26.70;;
58071;SDS011;60383;46.626;18.866;2022-11-15T12:39:08;38.92;;;27.38;;
58071;SDS011;60383;46.626;18.866;2022-11-15T12:41:39;41.63;;;26.88;;
58071;SDS011;60383;46.626;18.866;2022-11-15T12:44:12;38.53;;;25.80;;
58071;SDS011;60383;46.626;18.866;2022-11-15T12:47:00;40.75;;;26.42;;
58071;SDS011;60383;46.626;18.866;2022-11-15T13:02:19;43.05;;;26.98;;
58071;SDS011;60383;46.626;18.866;2022-11-15T13:17:44;39.72;;;26.85;;
58071;SDS011;60383;46.626;18.866;2022-11-15T13:33:20;40.83;;;26.70;;
58071;SDS011;60383;46.626;18.866;2022-11-15T13:35:56;39.83;;;25.70;;
58071;SDS011;60383;46.626;18.866;2022-11-15T13:40:50;42.92;;;27.10;;
58071;SDS011;60383;46.626;18.866;2022-11-15T13:46:13;41.75;;;27.17;;
58071;SDS011;60383;46.626;18.866;2022-11-15T13:48:43;43.63;;;27.77;;
58071;SDS011;60383;46.626;18.866;2022-11-15T13:53:49;45.90;;;28.40;;
58071;SDS011;60383;46.626;18.866;2022-11-15T13:56:21;42.75;;;27.30;;
58071;SDS011;60383;46.626;18.866;2022-11-15T13:58:48;44.95;;;28.27;;
58071;SDS011;60383;46.626;18.866;2022-11-15T14:01:15;41.45;;;27.80;;
58071;SDS011;60383;46.626;18.866;2022-11-15T14:06:28;39.88;;;25.92;;
58071;SDS011;60383;46.626;18.866;2022-11-15T14:08:59;43.70;;;28.20;;
58071;SDS011;60383;46.626;18.866;2022-11-15T14:11:48;42.03;;;27.42;;
58071;SDS011;60383;46.626;18.866;2022-11-15T14:14:19;46.95;;;29.13;;
58071;SDS011;60383;46.626;18.866;2022-11-15T14:16:48;44.90;;;28.10;;
58071;SDS011;60383;46.626;18.866;2022-11-15T14:22:28;44.58;;;27.52;;
58071;SDS011;60383;46.626;18.866;2022-11-15T14:30:38;42.33;;;26.60;;
58071;SDS011;60383;46.626;18.866;2022-11-15T14:33:17;44.10;;;27.98;;
58071;SDS011;60383;46.626;18.866;2022-11-15T14:35:43;43.47;;;28.13;;
58071;SDS011;60383;46.626;18.866;2022-11-15T14:38:11;43.05;;;27.38;;
58071;SDS011;60383;46.626;18.866;2022-11-15T14:40:37;43.88;;;27.85;;
58071;SDS011;60383;46.626;18.866;2022-11-15T14:43:03;43.70;;;27.80;;
58071;SDS011;60383;46.626;18.866;2022-11-15T14:45:29;41.10;;;26.52;;
58071;SDS011;60383;46.626;18.866;2022-11-15T14:47:55;42.45;;;27.75;;
58071;SDS011;60383;46.626;18.866;2022-11-15T14:50:21;44.38;;;28.92;;
58071;SDS011;60383;46.626;18.866;2022-11-15T14:52:48;45.03;;;29.55;;
58071;SDS011;60383;46.626;18.866;2022-11-15T14:57:56;44.47;;;28.13;;
58071;SDS011;60383;46.626;18.866;2022-11-15T15:00:27;47.13;;;29.70;;
58071;SDS011;60383;46.626;18.866;2022-11-15T15:02:54;46.67;;;28.05;;
58071;SDS011;60383;46.626;18.866;2022-11-15T15:05:25;48.00;;;29.15;;
58071;SDS011;60383;46.626;18.866;2022-11-15T15:07:58;47.35;;;29.90;;
58071;SDS011;60383;46.626;18.866;2022-11-15T15:10:25;50.00;;;29.27;;
58071;SDS011;60383;46.626;18.866;2022-11-15T15:12:56;46.50;;;29.08;;
58071;SDS011;60383;46.626;18.866;2022-11-15T15:15:23;50.08;;;29.35;;
58071;SDS011;60383;46.626;18.866;2022-11-15T15:17:50;53.50;;;31.83;;
58071;SDS011;60383;46.626;18.866;2022-11-15T15:20:16;52.30;;;30.95;;
58071;SDS011;60383;46.626;18.866;2022-11-15T15:22:42;49.90;;;29.42;;
58071;SDS011;60383;46.626;18.866;2022-11-15T15:25:20;48.10;;;30.75;;
58071;SDS011;60383;46.626;18.866;2022-11-15T15:27:53;51.10;;;30.95;;
58071;SDS011;60383;46.626;18.866;2022-11-15T15:30:20;52.58;;;30.67;;
58071;SDS011;60383;46.626;18.866;2022-11-15T15:32:46;53.38;;;33.15;;
58071;SDS011;60383;46.626;18.866;2022-11-15T15:35:12;54.78;;;32.40;;
58071;SDS011;60383;46.626;18.866;2022-11-15T15:37:39;51.88;;;31.67;;
58071;SDS011;60383;46.626;18.866;2022-11-15T15:40:13;52.88;;;32.38;;
58071;SDS011;60383;46.626;18.866;2022-11-15T15:42:39;53.55;;;32.30;;
58071;SDS011;60383;46.626;18.866;2022-11-15T15:45:04;51.55;;;30.88;;
58071;SDS011;60383;46.626;18.866;2022-11-15T15:47:30;48.20;;;30.23;;
58071;SDS011;60383;46.626;18.866;2022-11-15T15:49:56;50.83;;;30.58;;
58071;SDS011;60383;46.626;18.866;2022-11-15T15:52:21;50.33;;;29.80;;
58071;SDS011;60383;46.626;18.866;2022-11-15T15:54:47;54.22;;;31.75;;
58071;SDS011;60383;46.626;18.866;2022-11-15T15:57:13;48.85;;;28.77;;
58071;SDS011;60383;46.626;18.866;2022-11-15T15:59:39;51.47;;;30.52;;
58071;SDS011;60383;46.626;18.866;2022-11-15T16:02:04;49.25;;;30.67;;
58071;SDS011;60383;46.626;18.866;2022-11-15T16:04:31;51.92;;;29.40;;
58071;SDS011;60383;46.626;18.866;2022-11-15T16:06:59;49.85;;;30.83;;
58071;SDS011;60383;46.626;18.866;2022-11-15T16:09:25;56.25;;;32.65;;
58071;SDS011;60383;46.626;18.866;2022-11-15T16:12:09;55.80;;;31.50;;
58071;SDS011;60383;46.626;18.866;2022-11-15T16:14:34;53.80;;;31.75;;
58071;SDS011;60383;46.626;18.866;2022-11-15T16:17:00;50.63;;;30.25;;
58071;SDS011;60383;46.626;18.866;2022-11-15T16:19:26;51.47;;;30.58;;
58071;SDS011;60383;46.626;18.866;2022-11-15T16:21:51;50.65;;;29.73;;
58071;SDS011;60383;46.626;18.866;2022-11-15T16:24:17;51.00;;;30.58;;
58071;SDS011;60383;46.626;18.866;2022-11-15T16:26:43;56.45;;;34.28;;
58071;SDS011;60383;46.626;18.866;2022-11-15T16:29:09;51.70;;;31.05;;
58071;SDS011;60383;46.626;18.866;2022-11-15T16:31:35;55.22;;;30.92;;
58071;SDS011;60383;46.626;18.866;2022-11-15T16:34:01;55.15;;;31.38;;
58071;SDS011;60383;46.626;18.866;2022-11-15T16:36:26;52.17;;;32.00;;
58071;SDS011;60383;46.626;18.866;2022-11-15T16:38:54;53.85;;;30.83;;
58071;SDS011;60383;46.626;18.866;2022-11-15T16:41:19;56.03;;;32.20;;
58071;SDS011;60383;46.626;18.866;2022-11-15T16:43:45;56.67;;;33.25;;
58071;SDS011;60383;46.626;18.866;2022-11-15T16:46:17;61.58;;;33.40;;
58071;SDS011;60383;46.626;18.866;2022-11-15T16:48:44;58.88;;;34.88;;
58071;SDS011;60383;46.626;18.866;2022-11-15T16:51:10;67.57;;;34.97;;
58071;SDS011;60383;46.626;18.866;2022-11-15T16:53:36;62.22;;;33.30;;
58071;SDS011;60383;46.626;18.866;2022-11-15T16:56:02;60.40;;;33.75;;
58071;SDS011;60383;46.626;18.866;2022-11-15T16:58:27;57.63;;;33.15;;
58071;SDS011;60383;46.626;18.866;2022-11-15T17:00:53;61.03;;;34.83;;
58071;SDS011;60383;46.626;18.866;2022-11-15T17:03:23;64.82;;;34.10;;
58071;SDS011;60383;46.626;18.866;2022-11-15T17:05:49;60.08;;;33.40;;
58071;SDS011;60383;46.626;18.866;2022-11-15T17:08:14;61.67;;;34.17;;
58071;SDS011;60383;46.626;18.866;2022-11-15T17:10:40;60.88;;;32.13;;